PWSweather.com
Personal Weather Stations
Station Observations
ZL1DX1M
Mt. Roskill, Auckland, AK 1041

Mt. RoskillAuckland, AK 1041

Lat: -36.9, Lon: 174.74

Elevation: 54

Station Type:

http://www.sanctuaryweather.co.nz

Latest ConditionsUpdated 10:00:29 AM GMT+12 Tuesday, Sep 23, 2014
Currently Today's Max Today's Min Today's Average
Temperature 58.3°F14.6°C 58.3°F14.6°C 37.9°F3.3°C 45.5°F7.5°C
Dew Point 48.2°F9.0°C 48.3°F9.1°C 34.4°F1.3°C 38.8°F3.8°C
Winds 4.5 mph S7.2 kmh S 6.1 mph SSW9.8 kmh SSW - 1.0 mph 1.6 kmh
Wind Gusts 8.0 mph12.9 kmh 9.0 mph14.5 kmh - -
Humidity 69% 91% 66% 78%
Pressure 30.12 in1020.0 mb 30.14 in1020.7 mb 29.98 in1015.2 mb -
Hour Temp Dew Point Humidity Winds Wind Gusts Pressure Precip Precip Rate Daily Precip Total
10:00 AM 58.3°F14.6°C 48.2°F9.0°C 69% 4.5 mph S7.2 kmh S 8.0 mph12.9 kmh 30.12 in1020.0 mb 0.00 in0.0 mm 0.00 in/hr0.0 mm/hr 0.00 in0.0 mm
09:45 AM 57.3°F14.1°C 48.3°F9.1°C 72% 3.2 mph S5.1 kmh S 7.0 mph11.3 kmh 30.13 in1020.3 mb 0.00 in0.0 mm 0.00 in/hr0.0 mm/hr 0.00 in0.0 mm
09:30 AM 56.8°F13.8°C 47.9°F8.8°C 72% 2.6 mph WSW4.2 kmh WSW 8.0 mph12.9 kmh 30.13 in1020.3 mb 0.00 in0.0 mm 0.00 in/hr0.0 mm/hr 0.00 in0.0 mm
09:15 AM 55.9°F13.3°C 47.0°F8.3°C 72% 6.1 mph SSW9.8 kmh SSW 6.0 mph9.7 kmh 30.14 in1020.7 mb 0.00 in0.0 mm 0.00 in/hr0.0 mm/hr 0.00 in0.0 mm
09:00 AM 55.4°F13.0°C 46.9°F8.3°C 73% 3.1 mph N5.0 kmh N 9.0 mph14.5 kmh 30.14 in1020.7 mb 0.00 in0.0 mm 0.00 in/hr0.0 mm/hr 0.00 in0.0 mm
08:45 AM 54.6°F12.6°C 46.1°F7.8°C 73% 2.6 mph SE4.2 kmh SE 5.0 mph8.0 kmh 30.14 in1020.7 mb 0.00 in0.0 mm 0.00 in/hr0.0 mm/hr 0.00 in0.0 mm
08:30 AM 54.1°F12.3°C 46.3°F7.9°C 75% 2.1 mph WSW3.4 kmh WSW 5.0 mph8.0 kmh 30.14 in1020.7 mb 0.00 in0.0 mm 0.00 in/hr0.0 mm/hr 0.00 in0.0 mm
08:15 AM 53.1°F11.7°C 45.7°F7.6°C 76% 1.6 mph SSE2.6 kmh SSE 1.0 mph1.6 kmh 30.13 in1020.3 mb 0.00 in0.0 mm 0.00 in/hr0.0 mm/hr 0.00 in0.0 mm
08:00 AM 50.1°F10.1°C 44.8°F7.1°C 82% 1.5 mph SW2.4 kmh SW 3.0 mph4.8 kmh 30.13 in1020.3 mb 0.00 in0.0 mm 0.00 in/hr0.0 mm/hr 0.00 in0.0 mm
07:45 AM 47.3°F8.5°C 42.7°F5.9°C 84% Calm Calm -- 30.13 in1020.3 mb 0.00 in0.0 mm 0.00 in/hr0.0 mm/hr 0.00 in0.0 mm
07:30 AM 45.0°F7.2°C 41.1°F5.1°C 86% Calm Calm -- 30.13 in1020.3 mb 0.00 in0.0 mm 0.00 in/hr0.0 mm/hr 0.00 in0.0 mm
07:15 AM 42.3°F5.7°C 39.3°F4.1°C 89% Calm Calm -- 30.13 in1020.3 mb 0.00 in0.0 mm 0.00 in/hr0.0 mm/hr 0.00 in0.0 mm
07:00 AM 40.6°F4.8°C 38.2°F3.4°C 91% Calm Calm -- 30.12 in1020.0 mb 0.00 in0.0 mm 0.00 in/hr0.0 mm/hr 0.00 in0.0 mm
06:45 AM 38.9°F3.8°C 36.2°F2.3°C 90% Calm Calm -- 30.12 in1020.0 mb 0.00 in0.0 mm 0.00 in/hr0.0 mm/hr 0.00 in0.0 mm
06:30 AM 38.4°F3.6°C 35.7°F2.1°C 90% Calm Calm -- 30.11 in1019.6 mb 0.00 in0.0 mm 0.00 in/hr0.0 mm/hr 0.00 in0.0 mm
06:15 AM 38.2°F3.4°C 35.5°F1.9°C 90% Calm Calm -- 30.11 in1019.6 mb 0.00 in0.0 mm 0.00 in/hr0.0 mm/hr 0.00 in0.0 mm
06:00 AM 38.1°F3.4°C 35.7°F2.1°C 91% Calm Calm -- 30.10 in1019.3 mb 0.00 in0.0 mm 0.00 in/hr0.0 mm/hr 0.00 in0.0 mm
05:45 AM 37.9°F3.3°C 35.2°F1.8°C 90% Calm Calm -- 30.10 in1019.3 mb 0.00 in0.0 mm 0.00 in/hr0.0 mm/hr 0.00 in0.0 mm
05:30 AM 38.2°F3.4°C 35.5°F1.9°C 90% Calm Calm -- 30.09 in1019.0 mb 0.00 in0.0 mm 0.00 in/hr0.0 mm/hr 0.00 in0.0 mm
05:15 AM 37.9°F3.3°C 34.9°F1.6°C 89% Calm Calm -- 30.09 in1019.0 mb 0.00 in0.0 mm 0.00 in/hr0.0 mm/hr 0.00 in0.0 mm
05:00 AM 38.5°F3.6°C 35.5°F1.9°C 89% Calm Calm -- 30.09 in1019.0 mb 0.00 in0.0 mm 0.00 in/hr0.0 mm/hr 0.00 in0.0 mm
04:45 AM 38.6°F3.7°C 35.4°F1.9°C 88% Calm Calm -- 30.08 in1018.6 mb 0.00 in0.0 mm 0.00 in/hr0.0 mm/hr 0.00 in0.0 mm
04:30 AM 39.1°F3.9°C 35.6°F2.0°C 87% Calm Calm -- 30.07 in1018.3 mb 0.00 in0.0 mm 0.00 in/hr0.0 mm/hr 0.00 in0.0 mm
04:15 AM 38.8°F3.8°C 34.4°F1.3°C 84% Calm Calm -- 30.07 in1018.3 mb 0.00 in0.0 mm 0.00 in/hr0.0 mm/hr 0.00 in0.0 mm
04:00 AM 40.0°F4.4°C 35.6°F2.0°C 84% Calm Calm -- 30.06 in1017.9 mb 0.00 in0.0 mm 0.00 in/hr0.0 mm/hr 0.00 in0.0 mm
03:45 AM 40.8°F4.9°C 35.1°F1.7°C 80% Calm Calm -- 30.06 in1017.9 mb 0.00 in0.0 mm 0.00 in/hr0.0 mm/hr 0.00 in0.0 mm
03:30 AM 41.9°F5.5°C 35.8°F2.1°C 79% Calm Calm -- 30.05 in1017.6 mb 0.00 in0.0 mm 0.00 in/hr0.0 mm/hr 0.00 in0.0 mm
03:15 AM 43.2°F6.2°C 36.1°F2.3°C 76% Calm Calm -- 30.05 in1017.6 mb 0.00 in0.0 mm 0.00 in/hr0.0 mm/hr 0.00 in0.0 mm
03:00 AM 44.5°F6.9°C 36.0°F2.2°C 72% Calm Calm -- 30.05 in1017.6 mb 0.00 in0.0 mm 0.00 in/hr0.0 mm/hr 0.00 in0.0 mm
02:45 AM 45.9°F7.7°C 36.3°F2.4°C 69% Calm Calm -- 30.04 in1017.3 mb 0.00 in0.0 mm 0.00 in/hr0.0 mm/hr 0.00 in0.0 mm
02:30 AM 46.1°F7.8°C 36.5°F2.5°C 69% 2.3 mph SE3.7 kmh SE 5.0 mph8.0 kmh 30.04 in1017.3 mb 0.00 in0.0 mm 0.00 in/hr0.0 mm/hr 0.00 in0.0 mm
02:15 AM 46.0°F7.8°C 36.4°F2.4°C 69% Calm Calm -- 30.03 in1016.9 mb 0.00 in0.0 mm 0.00 in/hr0.0 mm/hr 0.00 in0.0 mm
02:00 AM 46.2°F7.9°C 36.2°F2.3°C 68% 0.7 mph SE1.1 kmh SE 4.0 mph6.4 kmh 30.03 in1016.9 mb 0.00 in0.0 mm 0.00 in/hr0.0 mm/hr 0.00 in0.0 mm
01:45 AM 46.8°F8.2°C 36.4°F2.4°C 67% Calm Calm -- 30.02 in1016.6 mb 0.00 in0.0 mm 0.00 in/hr0.0 mm/hr 0.00 in0.0 mm
01:30 AM 47.1°F8.4°C 36.3°F2.4°C 66% 1.6 mph SE2.6 kmh SE 5.0 mph8.0 kmh 30.03 in1016.9 mb 0.00 in0.0 mm 0.00 in/hr0.0 mm/hr 0.00 in0.0 mm
01:15 AM 47.0°F8.3°C 36.6°F2.6°C 67% 3.5 mph ESE5.6 kmh ESE 5.0 mph8.0 kmh 30.02 in1016.6 mb 0.00 in0.0 mm 0.00 in/hr0.0 mm/hr 0.00 in0.0 mm
01:00 AM 46.3°F7.9°C 37.4°F3.0°C 71% 1.4 mph ESE2.3 kmh ESE 2.0 mph3.2 kmh 30.02 in1016.6 mb 0.00 in0.0 mm 0.00 in/hr0.0 mm/hr 0.00 in0.0 mm
12:45 AM 46.7°F8.2°C 37.4°F3.0°C 70% Calm Calm -- 30.01 in1016.3 mb 0.00 in0.0 mm 0.00 in/hr0.0 mm/hr 0.00 in0.0 mm
12:30 AM 46.8°F8.2°C 37.2°F2.9°C 69% 0.4 mph E0.6 kmh E 1.0 mph1.6 kmh 30.01 in1016.3 mb 0.00 in0.0 mm 0.00 in/hr0.0 mm/hr 0.00 in0.0 mm
12:15 AM 47.3°F8.5°C 37.6°F3.1°C 69% 2.4 mph SE3.9 kmh SE 3.0 mph4.8 kmh 30.00 in1015.9 mb 0.00 in0.0 mm 0.00 in/hr0.0 mm/hr 0.00 in0.0 mm
12:00 AM 47.7°F8.7°C 37.7°F3.2°C 68% 0.8 mph ENE1.3 kmh ENE 1.0 mph1.6 kmh 29.98 in1015.2 mb 0.00 in0.0 mm 0.00 in/hr0.0 mm/hr 0.00 in0.0 mm